map of LTM home
LTM - Airport
Location
City:  Lethem, Upper Takutu-Upper Essequibo, Guyana
ICAO:SYLT
IATA:LTM

Details
Type:Airport (Aerodrome, Airfield)
Latitude:322'22"N (3.372761)
Longitude:5947'22"W (-59.789438)
Datum:WGS 1984
Elevation:351 ft (107 m)
Variation:15.93W (WMM2015 magnetic declination)
-0.08 annual change
Runways:1
Longest:5985 × 98 ft (1824 × 30 m), paved

Time
Time Zone:UTC-4
Local Time:

Weather
METAR:SYLT 111800Z 09010KT 9999 FEW022CB SCT026 32/23 Q//// CB ALQDS NOSIG
TAF:SYLT 111100Z 1112/1123 06014KT 9999 BKN020 SCT038 PROB30
TEMPO 1116/1119 6000 SHRA BKN018

Related Locations
Nearby:
Farthest:LLO: 12448 mi / 20034 km
Palopo (Lagaligo) [Bua Airport (Palopo Lagaligo Airport)], SN, ID

Find:

   beyond  
but within

Other Information
Maps:
NOTAMs:
Links:
Sources:

  
  • flag of Guyana
  

Sectional Chart

Flight Planning
at skyvector.com

Satellite Image

Google Maps Satellite view

 

Copyright © 2004-2018 Karl L. Swartz. All rights reserved.
The Great Circle Mapper name and logo are trademarks of the Great Circle Mapper.
All other trademarks mentioned herein belong to their respective owners.
Please see credits for attibutions and further copyright information.

  Follow gcmap on Facebook Follow gcmap on Twitter Follow gcmap on Google+ GCmap on LinkedIn

hCard Microformat

Geo Microformat